sensor_id;sensor_type;location;lat;lon;timestamp;P1;durP1;ratioP1;P2;durP2;ratioP2
14736;SDS011;7459;53.590;10.062;2024-02-26T00:01:40;10.50;;;5.40;;
14736;SDS011;7459;53.590;10.062;2024-02-26T00:04:08;11.40;;;6.10;;
14736;SDS011;7459;53.590;10.062;2024-02-26T00:06:35;11.07;;;6.22;;
14736;SDS011;7459;53.590;10.062;2024-02-26T00:09:01;12.45;;;6.32;;
14736;SDS011;7459;53.590;10.062;2024-02-26T00:11:30;11.97;;;5.60;;
14736;SDS011;7459;53.590;10.062;2024-02-26T00:13:56;10.02;;;5.75;;
14736;SDS011;7459;53.590;10.062;2024-02-26T00:16:22;12.00;;;5.72;;
14736;SDS011;7459;53.590;10.062;2024-02-26T00:18:49;12.68;;;5.68;;
14736;SDS011;7459;53.590;10.062;2024-02-26T00:21:14;11.18;;;6.03;;
14736;SDS011;7459;53.590;10.062;2024-02-26T00:23:40;11.70;;;6.10;;
14736;SDS011;7459;53.590;10.062;2024-02-26T00:26:06;10.88;;;5.15;;
14736;SDS011;7459;53.590;10.062;2024-02-26T00:28:32;11.73;;;6.30;;
14736;SDS011;7459;53.590;10.062;2024-02-26T00:30:58;12.68;;;6.43;;
14736;SDS011;7459;53.590;10.062;2024-02-26T00:33:24;11.27;;;5.90;;
14736;SDS011;7459;53.590;10.062;2024-02-26T00:35:50;12.20;;;5.85;;
14736;SDS011;7459;53.590;10.062;2024-02-26T00:38:15;9.43;;;5.17;;
14736;SDS011;7459;53.590;10.062;2024-02-26T00:40:41;10.60;;;5.53;;
14736;SDS011;7459;53.590;10.062;2024-02-26T00:43:07;11.45;;;6.45;;
14736;SDS011;7459;53.590;10.062;2024-02-26T00:45:32;11.00;;;6.13;;
14736;SDS011;7459;53.590;10.062;2024-02-26T00:47:58;15.63;;;6.45;;
14736;SDS011;7459;53.590;10.062;2024-02-26T00:50:29;11.75;;;6.25;;
14736;SDS011;7459;53.590;10.062;2024-02-26T00:52:55;9.88;;;5.10;;
14736;SDS011;7459;53.590;10.062;2024-02-26T00:55:21;12.53;;;6.17;;
14736;SDS011;7459;53.590;10.062;2024-02-26T00:57:47;11.73;;;6.03;;
14736;SDS011;7459;53.590;10.062;2024-02-26T01:00:12;10.73;;;6.25;;
14736;SDS011;7459;53.590;10.062;2024-02-26T01:02:39;13.05;;;6.35;;
14736;SDS011;7459;53.590;10.062;2024-02-26T01:05:06;10.65;;;6.07;;
14736;SDS011;7459;53.590;10.062;2024-02-26T01:07:34;14.03;;;7.13;;
14736;SDS011;7459;53.590;10.062;2024-02-26T01:10:04;11.73;;;6.15;;
14736;SDS011;7459;53.590;10.062;2024-02-26T01:12:30;17.45;;;6.25;;
14736;SDS011;7459;53.590;10.062;2024-02-26T01:14:58;11.20;;;6.20;;
14736;SDS011;7459;53.590;10.062;2024-02-26T01:17:23;14.38;;;6.85;;
14736;SDS011;7459;53.590;10.062;2024-02-26T01:19:49;12.15;;;6.57;;
14736;SDS011;7459;53.590;10.062;2024-02-26T01:22:15;13.07;;;6.20;;
14736;SDS011;7459;53.590;10.062;2024-02-26T01:24:41;12.27;;;6.15;;
14736;SDS011;7459;53.590;10.062;2024-02-26T01:27:06;10.80;;;6.35;;
14736;SDS011;7459;53.590;10.062;2024-02-26T01:29:33;10.10;;;5.70;;
14736;SDS011;7459;53.590;10.062;2024-02-26T01:31:59;12.32;;;7.07;;
14736;SDS011;7459;53.590;10.062;2024-02-26T01:34:25;15.23;;;6.97;;
14736;SDS011;7459;53.590;10.062;2024-02-26T01:36:51;9.55;;;5.47;;
14736;SDS011;7459;53.590;10.062;2024-02-26T01:39:16;12.80;;;6.77;;
14736;SDS011;7459;53.590;10.062;2024-02-26T01:41:42;11.10;;;6.45;;
14736;SDS011;7459;53.590;10.062;2024-02-26T01:44:08;12.37;;;7.10;;
14736;SDS011;7459;53.590;10.062;2024-02-26T01:46:39;10.52;;;6.03;;
14736;SDS011;7459;53.590;10.062;2024-02-26T01:49:05;13.05;;;6.65;;
14736;SDS011;7459;53.590;10.062;2024-02-26T01:51:32;13.82;;;6.75;;
14736;SDS011;7459;53.590;10.062;2024-02-26T01:53:59;10.25;;;5.97;;
14736;SDS011;7459;53.590;10.062;2024-02-26T01:56:27;11.07;;;6.30;;
14736;SDS011;7459;53.590;10.062;2024-02-26T01:58:57;11.63;;;6.68;;
14736;SDS011;7459;53.590;10.062;2024-02-26T02:01:25;12.90;;;6.95;;
14736;SDS011;7459;53.590;10.062;2024-02-26T02:03:53;12.50;;;6.70;;
14736;SDS011;7459;53.590;10.062;2024-02-26T02:06:21;10.70;;;6.30;;
14736;SDS011;7459;53.590;10.062;2024-02-26T02:08:47;12.50;;;6.30;;
14736;SDS011;7459;53.590;10.062;2024-02-26T02:11:13;12.10;;;6.75;;
14736;SDS011;7459;53.590;10.062;2024-02-26T02:13:40;13.23;;;6.75;;
14736;SDS011;7459;53.590;10.062;2024-02-26T02:16:06;13.30;;;7.20;;
14736;SDS011;7459;53.590;10.062;2024-02-26T02:18:32;13.65;;;7.70;;
14736;SDS011;7459;53.590;10.062;2024-02-26T02:21:01;14.07;;;7.82;;
14736;SDS011;7459;53.590;10.062;2024-02-26T02:23:27;15.55;;;8.07;;
14736;SDS011;7459;53.590;10.062;2024-02-26T02:25:53;13.70;;;7.63;;
14736;SDS011;7459;53.590;10.062;2024-02-26T02:28:22;17.13;;;7.78;;
14736;SDS011;7459;53.590;10.062;2024-02-26T02:30:50;13.85;;;7.80;;
14736;SDS011;7459;53.590;10.062;2024-02-26T02:33:16;15.27;;;7.87;;
14736;SDS011;7459;53.590;10.062;2024-02-26T02:35:42;14.75;;;8.32;;
14736;SDS011;7459;53.590;10.062;2024-02-26T02:38:08;14.15;;;7.28;;
14736;SDS011;7459;53.590;10.062;2024-02-26T02:40:34;14.90;;;7.43;;
14736;SDS011;7459;53.590;10.062;2024-02-26T02:42:59;17.45;;;9.05;;
14736;SDS011;7459;53.590;10.062;2024-02-26T02:45:26;17.08;;;8.77;;
14736;SDS011;7459;53.590;10.062;2024-02-26T02:47:53;13.50;;;7.37;;
14736;SDS011;7459;53.590;10.062;2024-02-26T02:50:19;14.32;;;7.75;;
14736;SDS011;7459;53.590;10.062;2024-02-26T02:52:45;14.60;;;7.60;;
14736;SDS011;7459;53.590;10.062;2024-02-26T02:55:10;14.60;;;8.20;;
14736;SDS011;7459;53.590;10.062;2024-02-26T02:57:37;15.32;;;7.90;;
14736;SDS011;7459;53.590;10.062;2024-02-26T03:03:02;15.55;;;7.82;;
14736;SDS011;7459;53.590;10.062;2024-02-26T03:05:29;15.40;;;8.45;;
14736;SDS011;7459;53.590;10.062;2024-02-26T03:07:54;14.57;;;7.72;;
14736;SDS011;7459;53.590;10.062;2024-02-26T03:10:20;16.40;;;8.73;;
14736;SDS011;7459;53.590;10.062;2024-02-26T03:12:46;16.58;;;9.23;;
14736;SDS011;7459;53.590;10.062;2024-02-26T03:15:11;16.70;;;8.32;;
14736;SDS011;7459;53.590;10.062;2024-02-26T03:17:37;15.90;;;8.83;;
14736;SDS011;7459;53.590;10.062;2024-02-26T03:20:03;16.88;;;8.55;;
14736;SDS011;7459;53.590;10.062;2024-02-26T03:22:30;16.45;;;8.85;;
14736;SDS011;7459;53.590;10.062;2024-02-26T03:24:56;18.47;;;8.23;;
14736;SDS011;7459;53.590;10.062;2024-02-26T03:27:22;16.90;;;8.63;;
14736;SDS011;7459;53.590;10.062;2024-02-26T03:29:48;19.80;;;9.50;;
14736;SDS011;7459;53.590;10.062;2024-02-26T03:32:14;18.33;;;9.47;;
14736;SDS011;7459;53.590;10.062;2024-02-26T03:34:39;16.63;;;8.85;;
14736;SDS011;7459;53.590;10.062;2024-02-26T03:37:05;17.57;;;9.03;;
14736;SDS011;7459;53.590;10.062;2024-02-26T03:39:32;19.23;;;9.57;;
14736;SDS011;7459;53.590;10.062;2024-02-26T03:41:58;18.33;;;9.17;;
14736;SDS011;7459;53.590;10.062;2024-02-26T03:44:23;20.02;;;10.13;;
14736;SDS011;7459;53.590;10.062;2024-02-26T03:46:50;17.60;;;8.40;;
14736;SDS011;7459;53.590;10.062;2024-02-26T03:49:15;18.43;;;9.70;;
14736;SDS011;7459;53.590;10.062;2024-02-26T03:51:41;21.05;;;9.15;;
14736;SDS011;7459;53.590;10.062;2024-02-26T03:54:07;20.27;;;9.63;;
14736;SDS011;7459;53.590;10.062;2024-02-26T03:56:33;19.27;;;9.57;;
14736;SDS011;7459;53.590;10.062;2024-02-26T03:58:58;19.70;;;9.77;;
14736;SDS011;7459;53.590;10.062;2024-02-26T04:01:26;19.30;;;9.85;;
14736;SDS011;7459;53.590;10.062;2024-02-26T04:03:52;19.17;;;9.47;;
14736;SDS011;7459;53.590;10.062;2024-02-26T04:06:18;20.35;;;10.30;;
14736;SDS011;7459;53.590;10.062;2024-02-26T04:08:45;21.80;;;10.07;;
14736;SDS011;7459;53.590;10.062;2024-02-26T04:11:12;19.50;;;9.38;;
14736;SDS011;7459;53.590;10.062;2024-02-26T04:13:38;22.25;;;10.05;;
14736;SDS011;7459;53.590;10.062;2024-02-26T04:16:04;18.92;;;10.13;;
14736;SDS011;7459;53.590;10.062;2024-02-26T04:18:31;19.17;;;9.40;;
14736;SDS011;7459;53.590;10.062;2024-02-26T04:20:57;21.95;;;10.38;;
14736;SDS011;7459;53.590;10.062;2024-02-26T04:23:23;19.67;;;9.70;;
14736;SDS011;7459;53.590;10.062;2024-02-26T04:25:49;18.55;;;9.35;;
14736;SDS011;7459;53.590;10.062;2024-02-26T04:28:15;21.23;;;9.87;;
14736;SDS011;7459;53.590;10.062;2024-02-26T04:30:40;18.77;;;9.57;;
14736;SDS011;7459;53.590;10.062;2024-02-26T04:33:06;18.83;;;9.17;;
14736;SDS011;7459;53.590;10.062;2024-02-26T04:35:32;17.98;;;8.90;;
14736;SDS011;7459;53.590;10.062;2024-02-26T04:38:00;19.17;;;9.60;;
14736;SDS011;7459;53.590;10.062;2024-02-26T04:40:26;20.73;;;10.03;;
14736;SDS011;7459;53.590;10.062;2024-02-26T04:42:51;19.23;;;9.95;;
14736;SDS011;7459;53.590;10.062;2024-02-26T04:45:17;19.10;;;9.80;;
14736;SDS011;7459;53.590;10.062;2024-02-26T04:47:43;20.88;;;9.35;;
14736;SDS011;7459;53.590;10.062;2024-02-26T04:50:08;16.53;;;8.93;;
14736;SDS011;7459;53.590;10.062;2024-02-26T04:52:34;18.48;;;8.85;;
14736;SDS011;7459;53.590;10.062;2024-02-26T04:55:01;19.00;;;9.10;;
14736;SDS011;7459;53.590;10.062;2024-02-26T04:57:27;20.80;;;9.70;;
14736;SDS011;7459;53.590;10.062;2024-02-26T04:59:53;20.65;;;9.85;;
14736;SDS011;7459;53.590;10.062;2024-02-26T05:02:19;18.37;;;9.67;;
14736;SDS011;7459;53.590;10.062;2024-02-26T05:04:44;18.58;;;9.70;;
14736;SDS011;7459;53.590;10.062;2024-02-26T05:07:10;21.07;;;9.63;;
14736;SDS011;7459;53.590;10.062;2024-02-26T05:09:37;18.67;;;9.32;;
14736;SDS011;7459;53.590;10.062;2024-02-26T05:12:03;18.30;;;9.00;;
14736;SDS011;7459;53.590;10.062;2024-02-26T05:14:29;17.48;;;8.45;;
14736;SDS011;7459;53.590;10.062;2024-02-26T05:16:55;19.30;;;9.02;;
14736;SDS011;7459;53.590;10.062;2024-02-26T05:19:21;16.33;;;8.50;;
14736;SDS011;7459;53.590;10.062;2024-02-26T05:21:46;19.55;;;9.35;;
14736;SDS011;7459;53.590;10.062;2024-02-26T05:24:14;18.17;;;9.10;;
14736;SDS011;7459;53.590;10.062;2024-02-26T05:26:42;16.73;;;8.83;;
14736;SDS011;7459;53.590;10.062;2024-02-26T05:29:08;17.40;;;8.73;;
14736;SDS011;7459;53.590;10.062;2024-02-26T05:31:34;18.83;;;8.40;;
14736;SDS011;7459;53.590;10.062;2024-02-26T05:34:00;19.80;;;9.40;;
14736;SDS011;7459;53.590;10.062;2024-02-26T05:36:25;17.88;;;8.70;;
14736;SDS011;7459;53.590;10.062;2024-02-26T05:38:53;19.90;;;9.35;;
14736;SDS011;7459;53.590;10.062;2024-02-26T05:41:19;18.03;;;9.10;;
14736;SDS011;7459;53.590;10.062;2024-02-26T05:43:50;19.17;;;9.52;;
14736;SDS011;7459;53.590;10.062;2024-02-26T05:46:17;22.83;;;10.57;;
14736;SDS011;7459;53.590;10.062;2024-02-26T05:48:44;32.25;;;10.10;;
14736;SDS011;7459;53.590;10.062;2024-02-26T05:51:12;18.38;;;9.82;;
14736;SDS011;7459;53.590;10.062;2024-02-26T05:53:38;19.43;;;9.37;;
14736;SDS011;7459;53.590;10.062;2024-02-26T05:56:03;19.38;;;9.15;;
14736;SDS011;7459;53.590;10.062;2024-02-26T05:58:29;18.65;;;9.30;;
14736;SDS011;7459;53.590;10.062;2024-02-26T06:00:55;19.33;;;9.57;;
14736;SDS011;7459;53.590;10.062;2024-02-26T06:03:20;17.58;;;8.70;;
14736;SDS011;7459;53.590;10.062;2024-02-26T06:05:46;18.77;;;9.53;;
14736;SDS011;7459;53.590;10.062;2024-02-26T06:08:12;19.30;;;9.77;;
14736;SDS011;7459;53.590;10.062;2024-02-26T06:10:38;17.38;;;9.07;;
14736;SDS011;7459;53.590;10.062;2024-02-26T06:13:04;18.50;;;9.33;;
14736;SDS011;7459;53.590;10.062;2024-02-26T06:15:30;16.05;;;8.77;;
14736;SDS011;7459;53.590;10.062;2024-02-26T06:17:55;18.10;;;8.60;;
14736;SDS011;7459;53.590;10.062;2024-02-26T06:20:21;17.92;;;8.50;;
14736;SDS011;7459;53.590;10.062;2024-02-26T06:22:47;16.73;;;8.33;;
14736;SDS011;7459;53.590;10.062;2024-02-26T06:25:12;18.65;;;8.70;;
14736;SDS011;7459;53.590;10.062;2024-02-26T06:27:38;17.20;;;8.43;;
14736;SDS011;7459;53.590;10.062;2024-02-26T06:30:04;16.35;;;8.25;;
14736;SDS011;7459;53.590;10.062;2024-02-26T06:32:31;16.30;;;9.15;;
14736;SDS011;7459;53.590;10.062;2024-02-26T06:34:56;22.47;;;9.77;;
14736;SDS011;7459;53.590;10.062;2024-02-26T06:37:22;16.85;;;8.73;;
14736;SDS011;7459;53.590;10.062;2024-02-26T06:39:48;18.13;;;8.90;;
14736;SDS011;7459;53.590;10.062;2024-02-26T06:42:14;17.70;;;8.52;;
14736;SDS011;7459;53.590;10.062;2024-02-26T06:44:39;18.80;;;8.93;;
14736;SDS011;7459;53.590;10.062;2024-02-26T06:47:05;18.00;;;8.80;;
14736;SDS011;7459;53.590;10.062;2024-02-26T06:49:30;17.20;;;8.20;;
14736;SDS011;7459;53.590;10.062;2024-02-26T06:51:56;18.70;;;8.20;;
14736;SDS011;7459;53.590;10.062;2024-02-26T06:54:22;19.08;;;8.52;;
14736;SDS011;7459;53.590;10.062;2024-02-26T06:56:48;17.23;;;8.55;;
14736;SDS011;7459;53.590;10.062;2024-02-26T06:59:13;19.20;;;8.13;;
14736;SDS011;7459;53.590;10.062;2024-02-26T07:01:42;17.50;;;8.18;;
14736;SDS011;7459;53.590;10.062;2024-02-26T07:04:08;17.50;;;7.95;;
14736;SDS011;7459;53.590;10.062;2024-02-26T07:06:35;20.77;;;9.45;;
14736;SDS011;7459;53.590;10.062;2024-02-26T07:09:01;21.63;;;8.77;;
14736;SDS011;7459;53.590;10.062;2024-02-26T07:11:27;16.42;;;7.75;;
14736;SDS011;7459;53.590;10.062;2024-02-26T07:13:53;18.07;;;8.33;;
14736;SDS011;7459;53.590;10.062;2024-02-26T07:16:19;18.13;;;8.05;;
14736;SDS011;7459;53.590;10.062;2024-02-26T07:18:44;20.20;;;8.60;;
14736;SDS011;7459;53.590;10.062;2024-02-26T07:21:11;19.15;;;8.50;;
14736;SDS011;7459;53.590;10.062;2024-02-26T07:23:37;16.10;;;7.87;;
14736;SDS011;7459;53.590;10.062;2024-02-26T07:26:03;20.45;;;8.70;;
14736;SDS011;7459;53.590;10.062;2024-02-26T07:28:28;19.00;;;8.80;;
14736;SDS011;7459;53.590;10.062;2024-02-26T07:30:54;19.00;;;7.88;;
14736;SDS011;7459;53.590;10.062;2024-02-26T07:33:20;14.40;;;7.55;;
14736;SDS011;7459;53.590;10.062;2024-02-26T07:35:46;14.65;;;6.63;;
14736;SDS011;7459;53.590;10.062;2024-02-26T07:38:11;14.27;;;6.37;;
14736;SDS011;7459;53.590;10.062;2024-02-26T07:40:38;16.95;;;8.25;;
14736;SDS011;7459;53.590;10.062;2024-02-26T07:43:04;15.07;;;7.40;;
14736;SDS011;7459;53.590;10.062;2024-02-26T07:45:30;15.70;;;8.40;;
14736;SDS011;7459;53.590;10.062;2024-02-26T07:47:55;16.75;;;7.75;;
14736;SDS011;7459;53.590;10.062;2024-02-26T07:50:21;17.08;;;7.32;;
14736;SDS011;7459;53.590;10.062;2024-02-26T07:52:47;17.30;;;7.82;;
14736;SDS011;7459;53.590;10.062;2024-02-26T07:55:12;20.27;;;7.83;;
14736;SDS011;7459;53.590;10.062;2024-02-26T07:57:41;20.10;;;8.10;;
14736;SDS011;7459;53.590;10.062;2024-02-26T08:00:08;17.43;;;7.63;;
14736;SDS011;7459;53.590;10.062;2024-02-26T08:02:38;13.70;;;6.60;;
14736;SDS011;7459;53.590;10.062;2024-02-26T08:05:04;15.55;;;8.00;;
14736;SDS011;7459;53.590;10.062;2024-02-26T08:07:30;17.35;;;7.65;;
14736;SDS011;7459;53.590;10.062;2024-02-26T08:09:56;19.53;;;8.87;;
14736;SDS011;7459;53.590;10.062;2024-02-26T08:12:22;17.90;;;8.43;;
14736;SDS011;7459;53.590;10.062;2024-02-26T08:14:48;18.13;;;8.63;;
14736;SDS011;7459;53.590;10.062;2024-02-26T08:17:13;17.98;;;8.23;;
14736;SDS011;7459;53.590;10.062;2024-02-26T08:19:39;17.23;;;8.87;;
14736;SDS011;7459;53.590;10.062;2024-02-26T08:22:05;17.65;;;8.45;;
14736;SDS011;7459;53.590;10.062;2024-02-26T08:24:30;18.07;;;8.87;;
14736;SDS011;7459;53.590;10.062;2024-02-26T08:26:56;17.23;;;8.63;;
14736;SDS011;7459;53.590;10.062;2024-02-26T08:29:22;18.27;;;9.20;;
14736;SDS011;7459;53.590;10.062;2024-02-26T08:31:47;16.70;;;7.53;;
14736;SDS011;7459;53.590;10.062;2024-02-26T08:34:13;18.00;;;8.23;;
14736;SDS011;7459;53.590;10.062;2024-02-26T08:36:39;19.88;;;8.85;;
14736;SDS011;7459;53.590;10.062;2024-02-26T08:39:05;18.03;;;8.10;;
14736;SDS011;7459;53.590;10.062;2024-02-26T08:41:31;17.90;;;7.93;;
14736;SDS011;7459;53.590;10.062;2024-02-26T08:43:57;14.88;;;7.53;;
14736;SDS011;7459;53.590;10.062;2024-02-26T08:46:23;18.27;;;7.90;;
14736;SDS011;7459;53.590;10.062;2024-02-26T08:48:48;16.63;;;8.15;;
14736;SDS011;7459;53.590;10.062;2024-02-26T08:51:14;16.20;;;7.93;;
14736;SDS011;7459;53.590;10.062;2024-02-26T08:53:40;17.83;;;8.73;;
14736;SDS011;7459;53.590;10.062;2024-02-26T08:56:06;18.17;;;7.93;;
14736;SDS011;7459;53.590;10.062;2024-02-26T08:58:31;18.77;;;8.88;;
14736;SDS011;7459;53.590;10.062;2024-02-26T09:00:57;17.30;;;8.00;;
14736;SDS011;7459;53.590;10.062;2024-02-26T09:03:23;20.52;;;8.27;;
14736;SDS011;7459;53.590;10.062;2024-02-26T09:05:49;16.37;;;7.83;;
14736;SDS011;7459;53.590;10.062;2024-02-26T09:08:15;16.48;;;8.27;;
14736;SDS011;7459;53.590;10.062;2024-02-26T09:10:41;18.75;;;8.35;;
14736;SDS011;7459;53.590;10.062;2024-02-26T09:13:07;16.70;;;7.90;;
14736;SDS011;7459;53.590;10.062;2024-02-26T09:15:33;16.52;;;7.47;;
14736;SDS011;7459;53.590;10.062;2024-02-26T09:17:59;19.15;;;8.18;;
14736;SDS011;7459;53.590;10.062;2024-02-26T09:20:24;16.98;;;8.32;;
14736;SDS011;7459;53.590;10.062;2024-02-26T09:22:50;17.75;;;8.60;;
14736;SDS011;7459;53.590;10.062;2024-02-26T09:25:19;19.27;;;7.93;;
14736;SDS011;7459;53.590;10.062;2024-02-26T09:27:45;20.75;;;8.45;;
14736;SDS011;7459;53.590;10.062;2024-02-26T09:30:11;17.77;;;8.23;;
14736;SDS011;7459;53.590;10.062;2024-02-26T09:32:38;19.15;;;8.15;;
14736;SDS011;7459;53.590;10.062;2024-02-26T09:35:05;19.23;;;7.95;;
14736;SDS011;7459;53.590;10.062;2024-02-26T09:37:32;16.55;;;8.05;;
14736;SDS011;7459;53.590;10.062;2024-02-26T09:39:58;17.20;;;7.72;;
14736;SDS011;7459;53.590;10.062;2024-02-26T09:42:27;15.77;;;7.63;;
14736;SDS011;7459;53.590;10.062;2024-02-26T09:44:56;18.02;;;7.88;;
14736;SDS011;7459;53.590;10.062;2024-02-26T09:47:28;20.17;;;9.20;;
14736;SDS011;7459;53.590;10.062;2024-02-26T09:49:57;18.38;;;8.20;;
14736;SDS011;7459;53.590;10.062;2024-02-26T09:52:27;18.23;;;7.60;;
14736;SDS011;7459;53.590;10.062;2024-02-26T09:54:54;20.63;;;8.83;;
14736;SDS011;7459;53.590;10.062;2024-02-26T09:57:20;18.60;;;7.82;;
14736;SDS011;7459;53.590;10.062;2024-02-26T09:59:49;22.75;;;8.18;;
14736;SDS011;7459;53.590;10.062;2024-02-26T10:02:18;18.65;;;8.27;;
14736;SDS011;7459;53.590;10.062;2024-02-26T10:04:46;18.13;;;8.55;;
14736;SDS011;7459;53.590;10.062;2024-02-26T10:07:14;21.07;;;9.13;;
14736;SDS011;7459;53.590;10.062;2024-02-26T10:09:41;19.77;;;8.93;;
14736;SDS011;7459;53.590;10.062;2024-02-26T10:12:07;22.17;;;8.18;;
14736;SDS011;7459;53.590;10.062;2024-02-26T10:14:36;20.70;;;8.40;;
14736;SDS011;7459;53.590;10.062;2024-02-26T10:17:02;20.05;;;8.88;;
14736;SDS011;7459;53.590;10.062;2024-02-26T10:19:29;24.42;;;9.10;;
14736;SDS011;7459;53.590;10.062;2024-02-26T10:21:59;21.00;;;8.93;;
14736;SDS011;7459;53.590;10.062;2024-02-26T10:24:29;22.80;;;9.02;;
14736;SDS011;7459;53.590;10.062;2024-02-26T10:26:56;23.65;;;9.57;;
14736;SDS011;7459;53.590;10.062;2024-02-26T10:29:23;22.27;;;9.10;;
14736;SDS011;7459;53.590;10.062;2024-02-26T10:31:50;19.25;;;8.88;;
14736;SDS011;7459;53.590;10.062;2024-02-26T10:34:17;20.47;;;8.70;;
14736;SDS011;7459;53.590;10.062;2024-02-26T10:36:44;20.48;;;8.82;;
14736;SDS011;7459;53.590;10.062;2024-02-26T10:39:13;22.30;;;9.30;;
14736;SDS011;7459;53.590;10.062;2024-02-26T10:41:42;19.30;;;8.48;;
14736;SDS011;7459;53.590;10.062;2024-02-26T10:44:10;20.13;;;8.90;;
14736;SDS011;7459;53.590;10.062;2024-02-26T10:46:37;19.20;;;8.70;;
14736;SDS011;7459;53.590;10.062;2024-02-26T10:49:05;20.23;;;8.73;;
14736;SDS011;7459;53.590;10.062;2024-02-26T10:51:38;23.73;;;9.52;;
14736;SDS011;7459;53.590;10.062;2024-02-26T10:54:05;23.10;;;9.15;;
14736;SDS011;7459;53.590;10.062;2024-02-26T10:56:33;20.87;;;8.37;;
14736;SDS011;7459;53.590;10.062;2024-02-26T10:59:02;17.27;;;7.85;;
14736;SDS011;7459;53.590;10.062;2024-02-26T11:01:29;19.58;;;8.55;;
14736;SDS011;7459;53.590;10.062;2024-02-26T11:03:56;18.92;;;8.90;;
14736;SDS011;7459;53.590;10.062;2024-02-26T11:06:23;18.35;;;7.70;;
14736;SDS011;7459;53.590;10.062;2024-02-26T11:08:51;19.07;;;8.63;;
14736;SDS011;7459;53.590;10.062;2024-02-26T11:11:18;18.48;;;8.20;;
14736;SDS011;7459;53.590;10.062;2024-02-26T11:13:46;20.42;;;8.55;;
14736;SDS011;7459;53.590;10.062;2024-02-26T11:16:21;20.08;;;8.20;;
14736;SDS011;7459;53.590;10.062;2024-02-26T11:18:47;20.95;;;8.10;;
14736;SDS011;7459;53.590;10.062;2024-02-26T11:21:17;18.50;;;8.23;;
14736;SDS011;7459;53.590;10.062;2024-02-26T11:23:44;18.92;;;8.05;;
14736;SDS011;7459;53.590;10.062;2024-02-26T11:26:11;18.25;;;7.65;;
14736;SDS011;7459;53.590;10.062;2024-02-26T11:28:39;17.33;;;6.90;;
14736;SDS011;7459;53.590;10.062;2024-02-26T11:31:06;17.02;;;7.38;;
14736;SDS011;7459;53.590;10.062;2024-02-26T11:33:33;21.27;;;7.90;;
14736;SDS011;7459;53.590;10.062;2024-02-26T11:36:01;18.83;;;8.02;;
14736;SDS011;7459;53.590;10.062;2024-02-26T11:38:32;15.60;;;7.20;;
14736;SDS011;7459;53.590;10.062;2024-02-26T11:40:58;17.95;;;8.10;;
14736;SDS011;7459;53.590;10.062;2024-02-26T11:46:32;16.70;;;7.80;;
14736;SDS011;7459;53.590;10.062;2024-02-26T11:49:29;15.93;;;6.95;;
14736;SDS011;7459;53.590;10.062;2024-02-26T11:51:51;16.40;;;7.32;;
14736;SDS011;7459;53.590;10.062;2024-02-26T11:54:38;17.20;;;7.10;;
14736;SDS011;7459;53.590;10.062;2024-02-26T12:02:55;15.00;;;6.72;;
14736;SDS011;7459;53.590;10.062;2024-02-26T12:05:26;17.80;;;7.43;;
14736;SDS011;7459;53.590;10.062;2024-02-26T12:08:03;15.70;;;7.07;;
14736;SDS011;7459;53.590;10.062;2024-02-26T12:10:34;17.10;;;7.82;;
14736;SDS011;7459;53.590;10.062;2024-02-26T12:13:07;15.97;;;7.90;;
14736;SDS011;7459;53.590;10.062;2024-02-26T12:15:41;15.35;;;7.22;;
14736;SDS011;7459;53.590;10.062;2024-02-26T12:18:09;14.05;;;6.72;;
14736;SDS011;7459;53.590;10.062;2024-02-26T12:20:41;15.55;;;7.68;;
14736;SDS011;7459;53.590;10.062;2024-02-26T12:23:08;16.63;;;8.05;;
14736;SDS011;7459;53.590;10.062;2024-02-26T12:25:39;16.63;;;7.33;;
14736;SDS011;7459;53.590;10.062;2024-02-26T12:28:06;17.70;;;7.70;;
14736;SDS011;7459;53.590;10.062;2024-02-26T12:30:32;17.02;;;7.90;;
14736;SDS011;7459;53.590;10.062;2024-02-26T12:32:58;14.82;;;6.68;;
14736;SDS011;7459;53.590;10.062;2024-02-26T12:35:25;16.15;;;6.82;;
14736;SDS011;7459;53.590;10.062;2024-02-26T12:37:55;16.95;;;7.35;;
14736;SDS011;7459;53.590;10.062;2024-02-26T12:40:21;16.17;;;7.90;;
14736;SDS011;7459;53.590;10.062;2024-02-26T12:42:49;16.25;;;7.97;;
14736;SDS011;7459;53.590;10.062;2024-02-26T12:45:15;16.63;;;7.57;;
14736;SDS011;7459;53.590;10.062;2024-02-26T12:47:44;15.45;;;7.10;;
14736;SDS011;7459;53.590;10.062;2024-02-26T12:50:11;15.40;;;7.80;;
14736;SDS011;7459;53.590;10.062;2024-02-26T12:52:39;14.47;;;6.47;;
14736;SDS011;7459;53.590;10.062;2024-02-26T12:55:08;14.32;;;6.50;;
14736;SDS011;7459;53.590;10.062;2024-02-26T12:57:37;16.20;;;7.57;;
14736;SDS011;7459;53.590;10.062;2024-02-26T13:00:04;14.93;;;6.95;;
14736;SDS011;7459;53.590;10.062;2024-02-26T13:02:34;16.13;;;7.55;;
14736;SDS011;7459;53.590;10.062;2024-02-26T13:05:04;16.15;;;7.35;;
14736;SDS011;7459;53.590;10.062;2024-02-26T13:07:32;18.15;;;7.57;;
14736;SDS011;7459;53.590;10.062;2024-02-26T13:09:59;18.20;;;8.10;;
14736;SDS011;7459;53.590;10.062;2024-02-26T13:12:25;16.90;;;6.88;;
14736;SDS011;7459;53.590;10.062;2024-02-26T13:15:01;20.02;;;7.28;;
14736;SDS011;7459;53.590;10.062;2024-02-26T13:17:31;15.13;;;6.88;;
14736;SDS011;7459;53.590;10.062;2024-02-26T13:19:58;17.25;;;7.45;;
14736;SDS011;7459;53.590;10.062;2024-02-26T13:22:23;17.17;;;7.45;;
14736;SDS011;7459;53.590;10.062;2024-02-26T13:24:56;14.87;;;6.80;;
14736;SDS011;7459;53.590;10.062;2024-02-26T13:27:23;19.15;;;6.90;;
14736;SDS011;7459;53.590;10.062;2024-02-26T13:30:01;15.73;;;6.38;;
14736;SDS011;7459;53.590;10.062;2024-02-26T13:32:34;19.48;;;7.82;;
14736;SDS011;7459;53.590;10.062;2024-02-26T13:35:11;15.90;;;6.35;;
14736;SDS011;7459;53.590;10.062;2024-02-26T13:37:38;17.50;;;7.63;;
14736;SDS011;7459;53.590;10.062;2024-02-26T13:40:05;17.15;;;7.53;;
14736;SDS011;7459;53.590;10.062;2024-02-26T13:42:36;16.17;;;7.10;;
14736;SDS011;7459;53.590;10.062;2024-02-26T13:45:03;18.98;;;7.75;;
14736;SDS011;7459;53.590;10.062;2024-02-26T13:47:31;15.52;;;6.80;;
14736;SDS011;7459;53.590;10.062;2024-02-26T13:49:58;18.30;;;8.10;;
14736;SDS011;7459;53.590;10.062;2024-02-26T13:52:25;18.40;;;7.93;;
14736;SDS011;7459;53.590;10.062;2024-02-26T13:54:51;16.60;;;8.23;;
14736;SDS011;7459;53.590;10.062;2024-02-26T13:57:17;16.43;;;7.97;;
14736;SDS011;7459;53.590;10.062;2024-02-26T13:59:44;18.13;;;7.80;;
14736;SDS011;7459;53.590;10.062;2024-02-26T14:02:10;18.98;;;8.07;;
14736;SDS011;7459;53.590;10.062;2024-02-26T14:04:36;18.50;;;7.23;;
14736;SDS011;7459;53.590;10.062;2024-02-26T14:07:02;17.75;;;7.40;;
14736;SDS011;7459;53.590;10.062;2024-02-26T14:09:29;15.93;;;7.40;;
14736;SDS011;7459;53.590;10.062;2024-02-26T14:11:55;15.93;;;7.10;;
14736;SDS011;7459;53.590;10.062;2024-02-26T14:14:20;16.92;;;8.15;;
14736;SDS011;7459;53.590;10.062;2024-02-26T14:16:46;17.05;;;7.35;;
14736;SDS011;7459;53.590;10.062;2024-02-26T14:19:12;16.90;;;7.13;;
14736;SDS011;7459;53.590;10.062;2024-02-26T14:21:37;16.07;;;8.03;;
14736;SDS011;7459;53.590;10.062;2024-02-26T14:24:04;17.02;;;8.30;;
14736;SDS011;7459;53.590;10.062;2024-02-26T14:26:30;18.80;;;8.35;;
14736;SDS011;7459;53.590;10.062;2024-02-26T14:28:56;17.03;;;7.60;;
14736;SDS011;7459;53.590;10.062;2024-02-26T14:31:21;16.60;;;7.63;;
14736;SDS011;7459;53.590;10.062;2024-02-26T14:33:47;17.50;;;7.53;;
14736;SDS011;7459;53.590;10.062;2024-02-26T14:36:13;20.90;;;8.85;;
14736;SDS011;7459;53.590;10.062;2024-02-26T14:38:39;16.35;;;8.48;;
14736;SDS011;7459;53.590;10.062;2024-02-26T14:41:05;20.73;;;8.60;;
14736;SDS011;7459;53.590;10.062;2024-02-26T14:43:31;21.77;;;8.48;;